createdAt,value
2018-05-02T00:01:50.761Z,5.10
2018-05-02T00:04:54.093Z,5.10
2018-05-02T00:07:57.389Z,5.00
2018-05-02T00:11:00.731Z,5.00
2018-05-02T00:14:04.797Z,5.00
2018-05-02T00:17:08.129Z,4.90
2018-05-02T00:20:12.209Z,4.90
2018-05-02T00:23:15.532Z,4.90
2018-05-02T00:26:18.833Z,4.90
2018-05-02T00:29:22.178Z,4.90
2018-05-02T00:32:25.469Z,4.90
2018-05-02T00:35:28.809Z,4.90
2018-05-02T00:38:32.109Z,4.80
2018-05-02T00:41:35.430Z,4.80
2018-05-02T00:44:39.489Z,4.70
2018-05-02T00:47:42.815Z,4.70
2018-05-02T00:50:46.128Z,4.70
2018-05-02T00:53:49.456Z,4.60
2018-05-02T00:56:52.757Z,4.60
2018-05-02T00:59:56.084Z,4.60
2018-05-02T01:02:59.380Z,4.60
2018-05-02T01:06:02.711Z,4.60
2018-05-02T01:09:06.016Z,4.50
2018-05-02T01:12:10.105Z,4.60
2018-05-02T01:15:13.408Z,4.60
2018-05-02T01:18:16.738Z,4.60
2018-05-02T01:21:20.808Z,4.60
2018-05-02T01:24:24.117Z,4.60
2018-05-02T01:27:27.441Z,4.60
2018-05-02T01:30:31.514Z,4.60
2018-05-02T01:33:34.825Z,4.60
2018-05-02T01:36:38.126Z,4.60
2018-05-02T01:39:41.450Z,4.60
2018-05-02T01:42:44.760Z,4.60
2018-05-02T01:45:48.069Z,4.60
2018-05-02T01:49:09.021Z,4.60
2018-05-02T01:52:12.325Z,4.50
2018-05-02T01:55:16.636Z,4.50
2018-05-02T01:58:19.934Z,4.50
2018-05-02T02:01:23.261Z,4.40
2018-05-02T02:04:27.332Z,4.40
2018-05-02T02:07:30.657Z,4.40
2018-05-02T02:10:34.739Z,4.30
2018-05-02T02:13:38.056Z,4.30
2018-05-02T02:16:41.361Z,4.30
2018-05-02T02:19:44.685Z,4.20
2018-05-02T02:22:47.994Z,4.20
2018-05-02T02:25:51.326Z,4.10
2018-05-02T02:28:54.630Z,4.10
2018-05-02T02:31:57.962Z,4.10
2018-05-02T02:35:01.274Z,4.10
2018-05-02T02:38:04.602Z,4.00
2018-05-02T02:41:07.912Z,4.00
2018-05-02T02:44:11.244Z,4.00
2018-05-02T02:47:15.540Z,4.00
2018-05-02T02:50:18.857Z,3.90
2018-05-02T02:53:22.165Z,3.90
2018-05-02T02:56:25.485Z,3.90
2018-05-02T02:59:28.814Z,3.90
2018-05-02T03:02:32.169Z,3.90
2018-05-02T03:05:35.495Z,3.90
2018-05-02T03:08:38.805Z,3.90
2018-05-02T03:11:42.106Z,3.90
2018-05-02T03:14:45.439Z,3.90
2018-05-02T03:17:48.753Z,3.90
2018-05-02T03:20:52.083Z,3.80
2018-05-02T03:23:55.461Z,3.80
2018-05-02T03:26:58.908Z,3.80
2018-05-02T03:30:02.229Z,3.80
2018-05-02T03:33:05.543Z,3.80
2018-05-02T03:36:08.903Z,3.70
2018-05-02T03:39:13.054Z,3.70
2018-05-02T03:42:16.395Z,3.70
2018-05-02T03:45:19.724Z,3.70
2018-05-02T03:48:23.059Z,3.70
2018-05-02T03:51:26.394Z,3.70
2018-05-02T03:54:29.713Z,3.70
2018-05-02T03:57:33.806Z,3.80
2018-05-02T04:00:54.613Z,3.70
2018-05-02T04:04:15.426Z,3.80
2018-05-02T04:07:18.751Z,3.80
2018-05-02T04:10:22.086Z,3.80
2018-05-02T04:13:25.414Z,3.80
2018-05-02T04:16:28.735Z,3.80
2018-05-02T04:19:32.821Z,3.90
2018-05-02T04:22:36.129Z,3.90
2018-05-02T04:25:40.226Z,3.90
2018-05-02T04:28:43.550Z,3.90
2018-05-02T04:31:47.661Z,4.00
2018-05-02T04:34:51.741Z,4.00
2018-05-02T04:37:55.135Z,4.00
2018-05-02T04:40:58.406Z,4.00
2018-05-02T04:44:02.477Z,4.10
2018-05-02T04:47:05.784Z,4.10
2018-05-02T04:50:09.858Z,4.20
2018-05-02T04:53:13.181Z,4.20
2018-05-02T04:56:16.477Z,4.30
2018-05-02T04:59:19.820Z,4.40
2018-05-02T05:02:23.162Z,4.40
2018-05-02T05:05:26.514Z,4.60
2018-05-02T05:08:30.597Z,4.80
2018-05-02T05:11:33.942Z,4.70
2018-05-02T05:14:37.262Z,4.80
2018-05-02T05:17:40.614Z,4.80
2018-05-02T05:20:43.930Z,4.90
2018-05-02T05:23:47.285Z,5.00
2018-05-02T05:26:51.361Z,5.10
2018-05-02T05:29:54.706Z,5.00
2018-05-02T05:32:58.017Z,5.10
2018-05-02T05:36:01.365Z,5.20
2018-05-02T05:39:04.697Z,5.30
2018-05-02T05:42:08.054Z,5.40
2018-05-02T05:45:11.381Z,5.40
2018-05-02T05:48:15.494Z,5.60
2018-05-02T05:51:19.569Z,5.70
2018-05-02T05:54:22.928Z,5.60
2018-05-02T05:57:26.247Z,5.70
2018-05-02T06:00:29.585Z,5.80
2018-05-02T06:03:33.679Z,5.90
2018-05-02T06:06:37.019Z,5.90
2018-05-02T06:09:40.342Z,6.00
2018-05-02T06:12:43.732Z,6.10
2018-05-02T06:15:47.040Z,6.20
2018-05-02T06:18:50.456Z,6.40
2018-05-02T06:21:53.743Z,6.60
2018-05-02T06:24:57.077Z,6.70
2018-05-02T06:28:01.253Z,6.80
2018-05-02T06:31:04.580Z,6.90
2018-05-02T06:34:07.909Z,7.00
2018-05-02T06:37:11.977Z,7.40
2018-05-02T06:40:15.390Z,7.30
2018-05-02T06:43:18.700Z,7.60
2018-05-02T06:46:22.053Z,7.70
2018-05-02T06:49:25.365Z,7.90
2018-05-02T06:52:28.699Z,8.10
2018-05-02T06:55:32.774Z,8.40
2018-05-02T06:58:36.198Z,8.40
2018-05-02T07:01:39.498Z,8.60
2018-05-02T07:04:42.829Z,8.70
2018-05-02T07:07:46.125Z,8.80
2018-05-02T07:10:49.449Z,9.00
2018-05-02T07:13:52.757Z,9.10
2018-05-02T07:16:56.077Z,9.20
2018-05-02T07:19:59.376Z,9.20
2018-05-02T07:23:02.692Z,9.40
2018-05-02T07:26:06.769Z,9.60
2018-05-02T07:29:10.098Z,9.60
2018-05-02T07:32:14.169Z,9.80
2018-05-02T07:35:17.486Z,9.80
2018-05-02T07:38:20.793Z,9.90
2018-05-02T07:41:24.113Z,10.10
2018-05-02T07:44:27.811Z,10.10
2018-05-02T07:47:31.948Z,10.30
2018-05-02T07:50:35.244Z,10.20
2018-05-02T07:53:38.565Z,10.30
2018-05-02T07:56:41.895Z,10.30
2018-05-02T07:59:45.212Z,10.40
2018-05-02T08:02:49.281Z,10.60
2018-05-02T08:05:52.602Z,10.60
2018-05-02T08:08:55.896Z,10.70
2018-05-02T08:11:59.206Z,10.80
2018-05-02T08:15:03.290Z,11.10
2018-05-02T08:18:06.598Z,11.00
2018-05-02T08:21:09.930Z,11.20
2018-05-02T08:24:13.997Z,11.40
2018-05-02T08:27:17.310Z,11.40
2018-05-02T08:30:20.638Z,11.40
2018-05-02T08:33:24.700Z,11.50
2018-05-02T08:36:28.025Z,11.50
2018-05-02T08:39:31.333Z,11.60
2018-05-02T08:42:35.419Z,11.70
2018-05-02T08:45:38.724Z,11.80
2018-05-02T08:48:42.049Z,12.00
2018-05-02T08:51:46.122Z,12.20
2018-05-02T08:54:49.437Z,12.20
2018-05-02T08:57:52.742Z,12.30
2018-05-02T09:00:56.825Z,12.40
2018-05-02T09:04:00.124Z,12.40
2018-05-02T09:07:03.456Z,12.60
2018-05-02T09:10:07.525Z,12.80
2018-05-02T09:13:10.843Z,12.80
2018-05-02T09:16:14.169Z,12.90
2018-05-02T09:19:18.236Z,13.00
2018-05-02T09:22:21.553Z,13.00
2018-05-02T09:25:24.870Z,13.10
2018-05-02T09:28:28.194Z,13.10
2018-05-02T09:31:31.497Z,13.20
2018-05-02T09:34:34.825Z,13.10
2018-05-02T09:37:38.137Z,13.20
2018-05-02T09:40:41.482Z,13.30
2018-05-02T09:43:44.793Z,13.30
2018-05-02T09:46:48.123Z,13.40
2018-05-02T09:49:51.429Z,13.50
2018-05-02T09:52:54.749Z,13.60
2018-05-02T09:55:58.820Z,13.70
2018-05-02T09:59:02.144Z,13.70
2018-05-02T10:02:06.217Z,13.70
2018-05-02T10:05:09.541Z,13.70
2018-05-02T10:08:12.869Z,13.80
2018-05-02T10:11:16.208Z,13.90
2018-05-02T10:14:19.521Z,14.00
2018-05-02T10:17:22.884Z,14.10
2018-05-02T10:20:26.211Z,14.20
2018-05-02T10:23:29.543Z,14.30
2018-05-02T10:26:33.633Z,14.20
2018-05-02T10:29:36.961Z,14.10
2018-05-02T10:32:41.054Z,14.30
2018-05-02T10:35:44.404Z,14.30
2018-05-02T10:38:47.757Z,14.30
2018-05-02T10:41:51.834Z,14.20
2018-05-02T10:44:55.169Z,14.20
2018-05-02T10:47:59.231Z,14.30
2018-05-02T10:54:11.062Z,14.40
2018-05-02T10:57:14.416Z,14.40
2018-05-02T11:00:17.741Z,14.60
2018-05-02T11:03:21.088Z,14.80
2018-05-02T11:06:25.181Z,14.70
2018-05-02T11:09:28.624Z,14.70
2018-05-02T11:12:31.990Z,14.70
2018-05-02T11:15:36.097Z,14.60
2018-05-02T11:18:39.469Z,14.60
2018-05-02T11:21:42.796Z,14.70
2018-05-02T11:24:46.146Z,14.70
2018-05-02T11:27:49.477Z,14.80
2018-05-02T11:30:52.812Z,14.90
2018-05-02T11:33:56.920Z,15.00
2018-05-02T11:37:01.032Z,14.90
2018-05-02T11:40:05.128Z,14.90
2018-05-02T11:43:08.472Z,14.90
2018-05-02T11:46:11.861Z,14.90
2018-05-02T11:49:15.949Z,14.70
2018-05-02T11:52:19.301Z,14.70
2018-05-02T11:55:22.640Z,14.90
2018-05-02T11:58:25.986Z,14.90
2018-05-02T12:01:29.316Z,14.90
2018-05-02T12:04:32.677Z,14.90
2018-05-02T12:07:36.005Z,15.00
2018-05-02T12:10:39.347Z,15.10
2018-05-02T12:13:42.698Z,15.20
2018-05-02T12:16:46.029Z,15.30
2018-05-02T12:19:50.152Z,15.10
2018-05-02T12:22:54.273Z,15.10
2018-05-02T12:25:57.627Z,15.10
2018-05-02T12:29:00.952Z,15.10
2018-05-02T12:32:05.086Z,15.00
2018-05-02T12:35:08.413Z,15.00
2018-05-02T12:38:11.745Z,15.00
2018-05-02T12:41:15.098Z,15.00
2018-05-02T12:44:18.424Z,14.90
2018-05-02T12:47:21.765Z,14.90
2018-05-02T12:50:25.861Z,15.20
2018-05-02T12:53:29.212Z,15.20
2018-05-02T12:56:32.541Z,15.30
2018-05-02T12:59:35.882Z,15.40
2018-05-02T13:02:39.236Z,15.50
2018-05-02T13:05:42.563Z,15.60
2018-05-02T13:08:46.681Z,16.10
2018-05-02T13:11:50.782Z,16.20
2018-05-02T13:14:54.892Z,16.30
2018-05-02T13:17:58.233Z,16.30
2018-05-02T13:21:01.598Z,16.40
2018-05-02T13:24:05.692Z,15.90
2018-05-02T13:27:09.041Z,15.90
2018-05-02T13:30:12.374Z,15.70
2018-05-02T13:33:15.809Z,15.60
2018-05-02T13:36:19.124Z,15.50
2018-05-02T13:39:22.501Z,15.50
2018-05-02T13:42:25.849Z,15.60
2018-05-02T13:45:29.204Z,15.70
2018-05-02T13:48:32.555Z,16.00
2018-05-02T13:51:35.932Z,16.10
2018-05-02T13:54:39.284Z,16.00
2018-05-02T13:57:43.401Z,16.00
2018-05-02T14:00:47.506Z,15.90
2018-05-02T14:03:50.860Z,15.90
2018-05-02T14:06:54.160Z,16.00
2018-05-02T14:09:57.469Z,16.10
2018-05-02T14:13:00.765Z,16.20
2018-05-02T14:16:04.114Z,16.30
2018-05-02T14:19:08.261Z,16.60
2018-05-02T14:22:11.533Z,16.60
2018-05-02T14:25:14.841Z,16.70
2018-05-02T14:28:18.179Z,16.90
2018-05-02T14:31:21.490Z,16.90
2018-05-02T14:34:24.813Z,17.10
2018-05-02T14:37:28.877Z,17.30
2018-05-02T14:40:32.213Z,17.30
2018-05-02T14:43:36.294Z,17.40
2018-05-02T14:46:39.629Z,17.40
2018-05-02T14:49:43.696Z,17.50
2018-05-02T14:52:47.041Z,17.50
2018-05-02T14:55:51.121Z,17.80
2018-05-02T14:58:54.427Z,17.80
2018-05-02T15:01:57.827Z,17.90
2018-05-02T15:05:01.829Z,17.80
2018-05-02T15:08:05.148Z,17.70
2018-05-02T15:11:09.287Z,17.70
2018-05-02T15:14:12.544Z,17.60
2018-05-02T15:17:15.840Z,17.70
2018-05-02T15:20:19.168Z,17.90
2018-05-02T15:23:22.477Z,17.90
2018-05-02T15:26:25.805Z,17.90
2018-05-02T15:29:29.109Z,18.00
2018-05-02T15:32:32.465Z,17.70
2018-05-02T15:35:36.544Z,18.10
2018-05-02T15:38:39.871Z,18.10
2018-05-02T15:41:43.180Z,18.30
2018-05-02T15:44:46.503Z,18.60
2018-05-02T15:47:49.813Z,18.60
2018-05-02T15:50:53.129Z,18.70
2018-05-02T15:53:56.457Z,18.90
2018-05-02T15:56:59.762Z,18.80
2018-05-02T16:00:03.090Z,18.80
2018-05-02T16:03:06.397Z,18.80
2018-05-02T16:06:09.717Z,18.60
2018-05-02T16:09:13.012Z,18.60
2018-05-02T16:12:16.344Z,18.80
2018-05-02T16:15:19.654Z,18.90
2018-05-02T16:18:22.981Z,19.00
2018-05-02T16:21:26.282Z,18.40
2018-05-02T16:24:29.598Z,18.10
2018-05-02T16:27:33.702Z,17.50
2018-05-02T16:30:37.009Z,17.50
2018-05-02T16:33:40.338Z,17.40
2018-05-02T16:36:43.675Z,17.20
2018-05-02T16:39:46.989Z,17.30
2018-05-02T16:42:50.329Z,17.20
2018-05-02T16:45:53.637Z,17.20
2018-05-02T16:48:56.965Z,17.20
2018-05-02T16:52:00.273Z,17.20
2018-05-02T16:55:03.600Z,17.00
2018-05-02T16:58:06.916Z,17.00
2018-05-02T17:01:10.250Z,16.90
2018-05-02T17:04:13.650Z,16.80
2018-05-02T17:07:16.884Z,16.70
2018-05-02T17:10:20.193Z,16.70
2018-05-02T17:13:23.521Z,16.60
2018-05-02T17:16:26.837Z,16.70
2018-05-02T17:19:30.161Z,16.70
2018-05-02T17:22:34.244Z,16.60
2018-05-02T17:25:37.582Z,16.60
2018-05-02T17:28:41.664Z,16.70
2018-05-02T17:31:44.985Z,16.70
2018-05-02T17:34:49.091Z,16.60
2018-05-02T17:37:53.175Z,16.50
2018-05-02T17:40:56.569Z,16.50
2018-05-02T17:43:59.844Z,16.40
2018-05-02T17:47:03.179Z,16.40
2018-05-02T17:50:06.494Z,16.30
2018-05-02T17:53:10.585Z,16.10
2018-05-02T17:56:13.907Z,16.10
2018-05-02T17:59:18.007Z,15.90
2018-05-02T18:02:21.327Z,15.90
2018-05-02T18:05:24.727Z,15.90
2018-05-02T18:08:27.995Z,15.80
2018-05-02T18:11:31.349Z,15.70
2018-05-02T18:14:34.654Z,15.70
2018-05-02T18:17:38.074Z,15.60
2018-05-02T18:20:41.387Z,15.40
2018-05-02T18:23:44.725Z,15.00
2018-05-02T18:26:48.030Z,14.70
2018-05-02T18:29:51.353Z,14.50
2018-05-02T18:32:54.660Z,14.20
2018-05-02T18:35:57.998Z,14.00
2018-05-02T18:39:02.073Z,13.70
2018-05-02T18:42:05.390Z,13.70
2018-05-02T18:45:09.506Z,13.40
2018-05-02T18:48:13.579Z,13.30
2018-05-02T18:51:16.917Z,13.30
2018-05-02T18:54:21.013Z,13.10
2018-05-02T18:57:24.333Z,13.00
2018-05-02T19:00:28.413Z,12.80
2018-05-02T19:03:31.761Z,12.80
2018-05-02T19:06:35.083Z,12.70
2018-05-02T19:09:38.427Z,12.60
2018-05-02T19:12:41.749Z,12.50
2018-05-02T19:15:45.081Z,12.40
2018-05-02T19:18:53.834Z,12.30
2018-05-02T19:21:57.168Z,12.20
2018-05-02T19:25:06.005Z,12.10
2018-05-02T19:28:09.338Z,12.00
2018-05-02T19:31:18.221Z,12.00
2018-05-02T19:34:22.307Z,11.90
2018-05-02T19:37:25.649Z,11.90
2018-05-02T19:40:34.445Z,11.90
2018-05-02T19:43:44.129Z,11.80
2018-05-02T19:46:47.441Z,11.80
2018-05-02T19:49:50.801Z,11.80
2018-05-02T19:52:54.121Z,11.70
2018-05-02T19:55:57.481Z,11.70
2018-05-02T19:59:01.557Z,11.70
2018-05-02T20:02:10.357Z,11.70
2018-05-02T20:05:13.671Z,11.60
2018-05-02T20:08:22.457Z,11.60
2018-05-02T20:11:31.175Z,11.60
2018-05-02T20:14:34.501Z,11.50
2018-05-02T20:17:37.813Z,11.50
2018-05-02T20:20:41.141Z,11.50
2018-05-02T20:23:44.457Z,11.40
2018-05-02T20:26:48.561Z,11.40
2018-05-02T20:29:52.633Z,11.40
2018-05-02T20:32:55.958Z,11.30
2018-05-02T20:35:59.269Z,11.20
2018-05-02T20:39:03.354Z,11.20
2018-05-02T20:42:06.710Z,11.10
2018-05-02T20:45:09.996Z,11.20
2018-05-02T20:48:13.316Z,11.20
2018-05-02T20:51:16.620Z,11.20
2018-05-02T20:54:19.980Z,11.20
2018-05-02T20:57:23.275Z,11.20
2018-05-02T21:00:27.372Z,11.10
2018-05-02T21:03:31.449Z,11.10
2018-05-02T21:06:34.787Z,11.10
2018-05-02T21:09:38.861Z,11.10
2018-05-02T21:12:42.249Z,11.10
2018-05-02T21:15:45.591Z,11.10
2018-05-02T21:18:49.751Z,11.10
2018-05-02T21:21:53.107Z,11.10
2018-05-02T21:24:57.303Z,11.10
2018-05-02T21:28:00.675Z,11.10
2018-05-02T21:31:04.892Z,11.00
2018-05-02T21:34:08.146Z,11.00
2018-05-02T21:37:12.280Z,11.00
2018-05-02T21:40:15.659Z,11.00
2018-05-02T21:43:19.827Z,11.00
2018-05-02T21:46:23.175Z,11.00
2018-05-02T21:49:26.576Z,10.90
2018-05-02T21:52:29.931Z,10.90
2018-05-02T21:55:33.270Z,10.90
2018-05-02T21:58:36.612Z,10.90
2018-05-02T22:01:39.988Z,10.90
2018-05-02T22:04:43.423Z,10.90
2018-05-02T22:07:46.794Z,10.90
2018-05-02T22:10:50.175Z,10.90
2018-05-02T22:13:53.551Z,10.90
2018-05-02T22:16:57.672Z,10.90
2018-05-02T22:20:01.170Z,10.80
2018-05-02T22:23:05.309Z,10.90
2018-05-02T22:26:08.717Z,10.90
2018-05-02T22:29:12.032Z,10.90
2018-05-02T22:32:15.386Z,10.80
2018-05-02T22:35:18.742Z,10.80
2018-05-02T22:38:22.098Z,10.80
2018-05-02T22:41:25.489Z,10.70
2018-05-02T22:44:28.840Z,10.80
2018-05-02T22:47:32.190Z,10.70
2018-05-02T22:50:36.303Z,10.70
2018-05-02T22:53:39.660Z,10.70
2018-05-02T22:56:43.806Z,10.60
2018-05-02T22:59:47.126Z,10.70
2018-05-02T23:02:50.450Z,10.60
2018-05-02T23:05:53.827Z,10.60
2018-05-02T23:08:57.161Z,10.60
2018-05-02T23:12:00.511Z,10.50
2018-05-02T23:15:03.883Z,10.40
2018-05-02T23:18:07.259Z,10.40
2018-05-02T23:21:10.594Z,10.40
2018-05-02T23:24:13.926Z,10.40
2018-05-02T23:27:17.291Z,10.30
2018-05-02T23:30:20.679Z,10.30
2018-05-02T23:33:24.757Z,10.20
2018-05-02T23:36:28.147Z,10.20
2018-05-02T23:39:31.506Z,10.30
2018-05-02T23:42:35.632Z,10.20
2018-05-02T23:45:39.001Z,10.20
2018-05-02T23:48:42.343Z,10.20
2018-05-02T23:51:45.685Z,10.20
2018-05-02T23:54:49.819Z,10.10
2018-05-02T23:57:53.167Z,10.10
